createdAt,value
2017-02-01T00:00:28.829Z,0
2017-02-01T00:01:28.827Z,0
2017-02-01T00:02:28.803Z,0
2017-02-01T00:03:28.788Z,0
2017-02-01T00:04:28.778Z,0
2017-02-01T00:05:28.375Z,0
2017-02-01T00:06:28.754Z,0
2017-02-01T00:07:28.734Z,0
2017-02-01T00:08:28.719Z,0
2017-02-01T00:09:28.711Z,0
2017-02-01T00:10:28.698Z,0
2017-02-01T00:11:28.680Z,0
2017-02-01T00:12:28.670Z,0
2017-02-01T00:13:28.654Z,0
2017-02-01T00:14:28.638Z,0
2017-02-01T00:15:28.625Z,0
2017-02-01T00:16:28.614Z,0
2017-02-01T00:17:28.609Z,0
2017-02-01T00:18:28.594Z,0
2017-02-01T00:19:28.577Z,0
2017-02-01T00:20:28.183Z,0
2017-02-01T00:21:28.547Z,0
2017-02-01T00:22:28.533Z,0
2017-02-01T00:23:28.521Z,0
2017-02-01T00:24:28.512Z,0
2017-02-01T00:25:28.497Z,0
2017-02-01T00:26:28.481Z,0
2017-02-01T00:27:28.088Z,0
2017-02-01T00:28:28.454Z,0
2017-02-01T00:29:28.439Z,0
2017-02-01T00:30:28.037Z,0
2017-02-01T00:31:28.438Z,0
2017-02-01T00:32:28.395Z,0
2017-02-01T00:33:28.005Z,0
2017-02-01T00:34:27.986Z,0
2017-02-01T00:35:28.359Z,0
2017-02-01T00:36:28.342Z,0
2017-02-01T00:37:28.336Z,0
2017-02-01T00:38:28.314Z,0
2017-02-01T00:39:28.302Z,0
2017-02-01T00:40:28.289Z,0
2017-02-01T00:41:28.276Z,0
2017-02-01T00:42:28.263Z,0
2017-02-01T00:43:28.249Z,0
2017-02-01T00:44:28.235Z,0
2017-02-01T00:45:28.229Z,0
2017-02-01T00:46:28.208Z,0
2017-02-01T00:47:28.199Z,0
2017-02-01T00:48:27.791Z,0
2017-02-01T00:49:28.169Z,0
2017-02-01T00:50:27.768Z,0
2017-02-01T00:51:28.178Z,0
2017-02-01T00:52:28.129Z,0
2017-02-01T00:53:27.727Z,0
2017-02-01T00:54:27.714Z,0
2017-02-01T00:55:28.083Z,0
2017-02-01T00:56:28.075Z,0
2017-02-01T00:57:28.089Z,0
2017-02-01T00:58:28.047Z,0
2017-02-01T00:59:28.064Z,0
2017-02-01T01:00:27.629Z,0
2017-02-01T01:01:28.002Z,0
2017-02-01T01:02:27.992Z,0
2017-02-01T01:03:27.972Z,0
2017-02-01T01:04:28.000Z,0
2017-02-01T01:05:27.946Z,0
2017-02-01T01:06:27.936Z,0
2017-02-01T01:07:27.921Z,0
2017-02-01T01:08:27.905Z,0
2017-02-01T01:09:27.935Z,0
2017-02-01T01:10:27.877Z,0
2017-02-01T01:11:27.866Z,0
2017-02-01T01:12:27.846Z,0
2017-02-01T01:13:27.834Z,0
2017-02-01T01:14:27.824Z,0
2017-02-01T01:15:27.814Z,0
2017-02-01T01:16:27.792Z,0
2017-02-01T01:17:27.784Z,0
2017-02-01T01:18:27.769Z,0
2017-02-01T01:19:27.752Z,0
2017-02-01T01:20:27.739Z,0
2017-02-01T01:21:27.725Z,0
2017-02-01T01:22:27.327Z,0
2017-02-01T01:23:27.697Z,0
2017-02-01T01:24:27.684Z,0
2017-02-01T01:25:27.675Z,0
2017-02-01T01:26:26.893Z,0
2017-02-01T01:27:27.667Z,0
2017-02-01T01:28:27.629Z,0
2017-02-01T01:29:27.227Z,0
2017-02-01T01:30:27.603Z,0
2017-02-01T01:31:27.588Z,0
2017-02-01T01:32:26.408Z,0
2017-02-01T01:33:27.173Z,0
2017-02-01T01:34:27.545Z,0
2017-02-01T01:35:27.524Z,0
2017-02-01T01:36:27.516Z,0
2017-02-01T01:37:27.135Z,0
2017-02-01T01:38:27.484Z,0
2017-02-01T01:39:27.471Z,0
2017-02-01T01:40:27.459Z,0
2017-02-01T01:41:27.448Z,0
2017-02-01T01:42:27.432Z,0
2017-02-01T01:43:27.419Z,0
2017-02-01T01:44:27.402Z,0
2017-02-01T01:45:27.006Z,0
2017-02-01T01:46:26.985Z,0
2017-02-01T01:47:26.975Z,0
2017-02-01T01:48:26.961Z,0
2017-02-01T01:49:26.947Z,0
2017-02-01T01:50:27.318Z,0
2017-02-01T01:51:27.302Z,0
2017-02-01T01:52:27.293Z,0
2017-02-01T01:53:27.275Z,0
2017-02-01T01:54:27.271Z,0
2017-02-01T01:55:27.254Z,0
2017-02-01T01:56:27.235Z,0
2017-02-01T01:57:27.219Z,0
2017-02-01T01:58:27.208Z,0
2017-02-01T01:59:26.810Z,0
2017-02-01T02:00:27.179Z,0
2017-02-01T02:01:27.165Z,0
2017-02-01T02:02:26.766Z,0
2017-02-01T02:03:27.140Z,0
2017-02-01T02:04:26.743Z,0
2017-02-01T02:05:26.725Z,0
2017-02-01T02:06:27.106Z,0
2017-02-01T02:07:27.081Z,0
2017-02-01T02:08:27.096Z,0
2017-02-01T02:09:27.057Z,0
2017-02-01T02:10:26.655Z,0
2017-02-01T02:11:26.642Z,0
2017-02-01T02:12:27.013Z,0
2017-02-01T02:13:26.227Z,0
2017-02-01T02:14:26.982Z,0
2017-02-01T02:15:26.978Z,0
2017-02-01T02:16:26.568Z,0
2017-02-01T02:17:26.941Z,0
2017-02-01T02:18:26.935Z,0
2017-02-01T02:19:26.527Z,0
2017-02-01T02:20:26.901Z,0
2017-02-01T02:21:26.801Z,0
2017-02-01T02:22:26.870Z,0
2017-02-01T02:23:26.856Z,0
2017-02-01T02:24:26.461Z,0
2017-02-01T02:25:26.452Z,0
2017-02-01T02:26:26.433Z,0
2017-02-01T02:27:26.029Z,0
2017-02-01T02:28:26.791Z,0
2017-02-01T02:29:26.776Z,0
2017-02-01T02:30:26.758Z,0
2017-02-01T02:31:26.366Z,0
2017-02-01T02:32:26.741Z,0
2017-02-01T02:33:26.718Z,0
2017-02-01T02:34:26.705Z,0
2017-02-01T02:35:26.718Z,0
2017-02-01T02:36:26.679Z,0
2017-02-01T02:37:26.661Z,0
2017-02-01T02:38:26.678Z,0
2017-02-01T02:39:26.250Z,0
2017-02-01T02:40:26.622Z,0
2017-02-01T02:41:26.608Z,0
2017-02-01T02:42:25.815Z,0
2017-02-01T02:43:26.577Z,0
2017-02-01T02:44:26.175Z,0
2017-02-01T02:45:26.552Z,0
2017-02-01T02:46:26.536Z,0
2017-02-01T02:47:26.547Z,0
2017-02-01T02:48:26.121Z,0
2017-02-01T02:49:26.497Z,0
2017-02-01T02:50:26.479Z,0
2017-02-01T02:51:25.692Z,0
2017-02-01T02:52:26.450Z,0
2017-02-01T02:53:26.063Z,0
2017-02-01T02:54:26.037Z,0
2017-02-01T02:55:26.410Z,0
2017-02-01T02:56:26.429Z,0
2017-02-01T02:57:25.998Z,0
2017-02-01T02:58:25.985Z,0
2017-02-01T02:59:26.360Z,0
2017-02-01T03:00:26.348Z,0
2017-02-01T03:01:26.329Z,0
2017-02-01T03:02:26.317Z,0
2017-02-01T03:03:26.337Z,0
2017-02-01T03:04:26.283Z,0
2017-02-01T03:05:26.273Z,0
2017-02-01T03:06:25.882Z,0
2017-02-01T03:07:26.273Z,0
2017-02-01T03:08:26.262Z,0
2017-02-01T03:09:26.217Z,0
2017-02-01T03:10:26.203Z,0
2017-02-01T03:11:25.804Z,0
2017-02-01T03:12:26.180Z,0
2017-02-01T03:13:26.159Z,0
2017-02-01T03:14:25.763Z,0
2017-02-01T03:15:26.135Z,0
2017-02-01T03:16:26.121Z,0
2017-02-01T03:17:26.107Z,0
2017-02-01T03:18:26.094Z,0
2017-02-01T03:19:26.074Z,0
2017-02-01T03:20:26.059Z,0
2017-02-01T03:21:26.048Z,0
2017-02-01T03:22:26.038Z,0
2017-02-01T03:23:26.024Z,0
2017-02-01T03:24:26.014Z,0
2017-02-01T03:25:25.996Z,0
2017-02-01T03:26:25.595Z,0
2017-02-01T03:27:25.963Z,0
2017-02-01T03:28:25.562Z,0
2017-02-01T03:29:25.578Z,0
2017-02-01T03:30:25.928Z,0
2017-02-01T03:31:25.902Z,0
2017-02-01T03:32:25.893Z,0
2017-02-01T03:33:25.880Z,0
2017-02-01T03:34:25.475Z,0
2017-02-01T03:35:25.850Z,0
2017-02-01T03:36:25.836Z,0
2017-02-01T03:37:25.465Z,0
2017-02-01T03:38:25.809Z,0
2017-02-01T03:39:25.794Z,0
2017-02-01T03:40:25.786Z,0
2017-02-01T03:41:25.770Z,0
2017-02-01T03:42:25.768Z,0
2017-02-01T03:43:25.735Z,0
2017-02-01T03:44:25.723Z,0
2017-02-01T03:45:25.713Z,0
2017-02-01T03:46:25.695Z,0
2017-02-01T03:47:25.713Z,0
2017-02-01T03:48:25.666Z,0
2017-02-01T03:49:25.650Z,0
2017-02-01T03:50:25.646Z,0
2017-02-01T03:51:25.622Z,0
2017-02-01T03:52:25.610Z,0
2017-02-01T03:53:25.209Z,0
2017-02-01T03:54:25.205Z,0
2017-02-01T03:55:25.568Z,0
2017-02-01T03:56:25.551Z,0
2017-02-01T03:57:25.542Z,0
2017-02-01T03:58:25.143Z,0
2017-02-01T03:59:25.511Z,0
2017-02-01T04:00:25.496Z,0
2017-02-01T04:01:25.101Z,0
2017-02-01T04:02:25.435Z,0
2017-02-01T04:03:25.455Z,0
2017-02-01T04:04:25.441Z,0
2017-02-01T04:05:25.429Z,0
2017-02-01T04:06:25.442Z,0
2017-02-01T04:07:25.405Z,0
2017-02-01T04:08:25.381Z,0
2017-02-01T04:09:25.371Z,0
2017-02-01T04:10:25.355Z,0
2017-02-01T04:11:24.956Z,0
2017-02-01T04:12:24.944Z,0
2017-02-01T04:13:25.318Z,0
2017-02-01T04:14:25.297Z,0
2017-02-01T04:15:25.288Z,0
2017-02-01T04:16:25.273Z,0
2017-02-01T04:17:25.253Z,0
2017-02-01T04:18:25.239Z,0
2017-02-01T04:19:24.843Z,0
2017-02-01T04:20:25.215Z,0
2017-02-01T04:21:25.198Z,0
2017-02-01T04:22:25.183Z,0
2017-02-01T04:23:25.173Z,0
2017-02-01T04:24:25.157Z,0
2017-02-01T04:25:25.142Z,0
2017-02-01T04:26:25.121Z,0
2017-02-01T04:27:25.112Z,0
2017-02-01T04:28:25.095Z,0
2017-02-01T04:29:25.099Z,0
2017-02-01T04:30:24.689Z,0
2017-02-01T04:31:25.059Z,0
2017-02-01T04:32:25.042Z,0
2017-02-01T04:33:25.025Z,0
2017-02-01T04:34:25.021Z,0
2017-02-01T04:35:24.617Z,0
2017-02-01T04:36:24.992Z,0
2017-02-01T04:37:24.586Z,0
2017-02-01T04:38:24.961Z,0
2017-02-01T04:39:24.941Z,0
2017-02-01T04:40:24.927Z,0
2017-02-01T04:41:24.538Z,0
2017-02-01T04:42:24.900Z,0
2017-02-01T04:43:24.888Z,0
2017-02-01T04:44:24.872Z,0
2017-02-01T04:45:24.858Z,0
2017-02-01T04:46:24.845Z,0
2017-02-01T04:47:24.831Z,0
2017-02-01T04:48:24.813Z,0
2017-02-01T04:49:24.800Z,0
2017-02-01T04:50:24.795Z,0
2017-02-01T04:51:24.772Z,0
2017-02-01T04:52:24.763Z,0
2017-02-01T04:53:24.743Z,0
2017-02-01T04:54:24.730Z,0
2017-02-01T04:55:24.720Z,0
2017-02-01T04:56:24.702Z,0
2017-02-01T04:57:24.689Z,0
2017-02-01T04:58:24.677Z,0
2017-02-01T04:59:24.660Z,0
2017-02-01T05:00:24.645Z,0
2017-02-01T05:01:24.632Z,0
2017-02-01T05:02:24.619Z,0
2017-02-01T05:03:24.604Z,0
2017-02-01T05:04:24.589Z,0
2017-02-01T05:05:24.577Z,0
2017-02-01T05:06:24.557Z,0
2017-02-01T05:07:24.160Z,0
2017-02-01T05:08:24.531Z,0
2017-02-01T05:09:24.525Z,0
2017-02-01T05:10:24.501Z,0
2017-02-01T05:11:24.488Z,0
2017-02-01T05:12:24.473Z,0
2017-02-01T05:13:24.468Z,0
2017-02-01T05:14:24.443Z,0
2017-02-01T05:15:24.431Z,0
2017-02-01T05:16:24.414Z,0
2017-02-01T05:17:24.399Z,0
2017-02-01T05:18:24.386Z,0
2017-02-01T05:19:24.373Z,0
2017-02-01T05:20:24.357Z,0
2017-02-01T05:21:24.343Z,0
2017-02-01T05:22:24.338Z,0
2017-02-01T05:23:24.314Z,0
2017-02-01T05:24:23.914Z,0
2017-02-01T05:25:24.288Z,0
2017-02-01T05:26:24.276Z,0
2017-02-01T05:27:24.254Z,0
2017-02-01T05:28:24.243Z,0
2017-02-01T05:29:24.230Z,0
2017-02-01T05:30:24.224Z,0
2017-02-01T05:31:24.199Z,0
2017-02-01T05:32:23.817Z,0
2017-02-01T05:33:24.172Z,0
2017-02-01T05:34:24.152Z,0
2017-02-01T05:35:24.145Z,0
2017-02-01T05:36:24.126Z,0
2017-02-01T05:37:24.111Z,0
2017-02-01T05:38:24.108Z,0
2017-02-01T05:39:24.081Z,0
2017-02-01T05:40:24.068Z,0
2017-02-01T05:41:24.062Z,0
2017-02-01T05:42:24.038Z,0
2017-02-01T05:43:24.029Z,0
2017-02-01T05:44:23.622Z,0
2017-02-01T05:45:23.996Z,0
2017-02-01T05:46:23.981Z,0
2017-02-01T05:47:23.592Z,0
2017-02-01T05:48:23.952Z,0
2017-02-01T05:49:23.937Z,0
2017-02-01T05:50:23.951Z,0
2017-02-01T05:51:23.908Z,0
2017-02-01T05:52:23.898Z,0
2017-02-01T05:53:23.492Z,0
2017-02-01T05:54:23.891Z,0
2017-02-01T05:55:23.847Z,0
2017-02-01T05:56:23.831Z,0
2017-02-01T05:57:23.817Z,0
2017-02-01T05:58:23.813Z,0
2017-02-01T05:59:23.789Z,0
2017-02-01T06:00:23.773Z,0
2017-02-01T06:01:23.770Z,0
2017-02-01T06:02:22.974Z,0
2017-02-01T06:03:23.734Z,0
2017-02-01T06:04:23.729Z,0
2017-02-01T06:05:23.727Z,0
2017-02-01T06:06:23.691Z,0
2017-02-01T06:07:23.302Z,0
2017-02-01T06:08:23.666Z,0
2017-02-01T06:09:23.646Z,0
2017-02-01T06:10:23.642Z,0
2017-02-01T06:11:23.617Z,0
2017-02-01T06:12:23.602Z,0
2017-02-01T06:13:23.584Z,0
2017-02-01T06:14:23.574Z,0
2017-02-01T06:15:23.559Z,0
2017-02-01T06:16:23.546Z,0
2017-02-01T06:17:23.527Z,0
2017-02-01T06:18:23.514Z,0
2017-02-01T06:19:23.502Z,0
2017-02-01T06:20:23.483Z,0
2017-02-01T06:21:23.468Z,0
2017-02-01T06:22:23.459Z,0
2017-02-01T06:23:23.441Z,0
2017-02-01T06:24:23.424Z,0
2017-02-01T06:25:23.416Z,0
2017-02-01T06:26:23.398Z,0
2017-02-01T06:27:23.383Z,0
2017-02-01T06:28:23.370Z,0
2017-02-01T06:29:22.977Z,0
2017-02-01T06:30:22.951Z,0
2017-02-01T06:31:23.322Z,0
2017-02-01T06:32:23.311Z,0
2017-02-01T06:33:22.907Z,0
2017-02-01T06:34:23.283Z,0
2017-02-01T06:35:23.264Z,0
2017-02-01T06:36:23.252Z,0
2017-02-01T06:37:23.236Z,0
2017-02-01T06:38:22.839Z,0
2017-02-01T06:39:23.208Z,5
2017-02-01T06:40:23.193Z,5
2017-02-01T06:41:23.178Z,5
2017-02-01T06:42:23.169Z,5
2017-02-01T06:43:22.766Z,5
2017-02-01T06:44:23.134Z,5
2017-02-01T06:45:23.123Z,5
2017-02-01T06:46:23.103Z,5
2017-02-01T06:47:23.093Z,5
2017-02-01T06:48:23.078Z,5
2017-02-01T06:49:23.064Z,5
2017-02-01T06:50:23.048Z,5
2017-02-01T06:51:23.033Z,10
2017-02-01T06:52:23.020Z,10
2017-02-01T06:53:23.013Z,10
2017-02-01T06:54:22.609Z,10
2017-02-01T06:55:22.588Z,10
2017-02-01T06:56:22.188Z,10
2017-02-01T06:57:22.951Z,10
2017-02-01T06:58:22.547Z,10
2017-02-01T06:59:22.915Z,10
2017-02-01T07:00:22.905Z,10
2017-02-01T07:01:22.896Z,15
2017-02-01T07:02:22.488Z,15
2017-02-01T07:03:22.475Z,15
2017-02-01T07:04:22.845Z,15
2017-02-01T07:05:22.840Z,15
2017-02-01T07:06:22.822Z,15
2017-02-01T07:07:22.801Z,15
2017-02-01T07:08:22.786Z,15
2017-02-01T07:09:22.776Z,15
2017-02-01T07:10:22.760Z,15
2017-02-01T07:11:22.756Z,15
2017-02-01T07:12:22.344Z,15
2017-02-01T07:13:22.740Z,15
2017-02-01T07:14:22.704Z,15
2017-02-01T07:15:22.694Z,20
2017-02-01T07:16:22.683Z,20
2017-02-01T07:17:22.661Z,20
2017-02-01T07:18:22.648Z,25
2017-02-01T07:19:22.623Z,25
2017-02-01T07:20:22.613Z,25
2017-02-01T07:21:22.620Z,25
2017-02-01T07:22:22.592Z,25
2017-02-01T07:23:22.573Z,25
2017-02-01T07:24:22.566Z,25
2017-02-01T07:25:22.548Z,30
2017-02-01T07:26:22.533Z,30
2017-02-01T07:27:22.514Z,30
2017-02-01T07:28:22.539Z,35
2017-02-01T07:29:22.100Z,35
2017-02-01T07:30:22.473Z,40
2017-02-01T07:31:22.072Z,40
2017-02-01T07:32:22.445Z,45
2017-02-01T07:33:22.434Z,45
2017-02-01T07:34:22.413Z,50
2017-02-01T07:35:22.408Z,50
2017-02-01T07:36:21.999Z,55
2017-02-01T07:37:22.369Z,60
2017-02-01T07:38:22.364Z,60
2017-02-01T07:39:22.348Z,65
2017-02-01T07:40:22.335Z,65
2017-02-01T07:41:22.317Z,65
2017-02-01T07:42:21.913Z,70
2017-02-01T07:43:22.284Z,70
2017-02-01T07:44:21.894Z,70
2017-02-01T07:45:22.254Z,65
2017-02-01T07:46:22.283Z,65
2017-02-01T07:47:22.259Z,70
2017-02-01T07:48:22.216Z,75
2017-02-01T07:49:22.202Z,75
2017-02-01T07:50:22.187Z,75
2017-02-01T07:51:22.175Z,75
2017-02-01T07:52:21.777Z,75
2017-02-01T07:53:22.154Z,75
2017-02-01T07:54:22.129Z,75
2017-02-01T07:55:22.124Z,80
2017-02-01T07:56:21.718Z,85
2017-02-01T07:57:22.094Z,90
2017-02-01T07:58:22.082Z,100
2017-02-01T07:59:22.067Z,95
2017-02-01T08:00:21.668Z,90
2017-02-01T08:01:22.046Z,90
2017-02-01T08:02:22.026Z,95
2017-02-01T08:03:22.017Z,100
2017-02-01T08:04:22.002Z,95
2017-02-01T08:05:21.983Z,95
2017-02-01T08:06:21.969Z,100
2017-02-01T08:07:21.980Z,100
2017-02-01T08:08:21.944Z,105
2017-02-01T08:09:21.544Z,105
2017-02-01T08:10:21.942Z,100
2017-02-01T08:11:21.907Z,105
2017-02-01T08:12:21.892Z,105
2017-02-01T08:13:21.876Z,115
2017-02-01T08:14:21.865Z,125
2017-02-01T08:15:21.853Z,125
2017-02-01T08:16:21.448Z,125
2017-02-01T08:17:21.820Z,115
2017-02-01T08:18:21.813Z,110
2017-02-01T08:19:22.101Z,110
2017-02-01T08:20:21.787Z,110
2017-02-01T08:21:21.383Z,110
2017-02-01T08:22:21.757Z,110
2017-02-01T08:23:21.744Z,110
2017-02-01T08:24:21.731Z,110
2017-02-01T08:25:21.364Z,95
2017-02-01T08:26:21.706Z,90
2017-02-01T08:27:21.307Z,95
2017-02-01T08:28:21.678Z,95
2017-02-01T08:29:21.672Z,95
2017-02-01T08:30:21.658Z,95
2017-02-01T08:31:21.642Z,100
2017-02-01T08:32:21.628Z,100
2017-02-01T08:33:21.230Z,100
2017-02-01T08:34:21.634Z,95
2017-02-01T08:35:21.629Z,95
2017-02-01T08:36:21.576Z,105
2017-02-01T08:37:21.563Z,105
2017-02-01T08:38:21.552Z,105
2017-02-01T08:39:21.542Z,105
2017-02-01T08:40:21.526Z,105
2017-02-01T08:41:21.513Z,105
2017-02-01T08:42:21.501Z,100
2017-02-01T08:43:21.492Z,105
2017-02-01T08:44:21.483Z,110
2017-02-01T08:45:21.459Z,110
2017-02-01T08:46:21.454Z,110
2017-02-01T08:47:21.436Z,115
2017-02-01T08:48:21.436Z,110
2017-02-01T08:49:21.409Z,110
2017-02-01T08:50:21.431Z,110
2017-02-01T08:51:21.384Z,110
2017-02-01T08:52:21.372Z,105
2017-02-01T08:53:21.359Z,105
2017-02-01T08:54:21.353Z,105
2017-02-01T08:55:21.339Z,115
2017-02-01T08:56:21.326Z,115
2017-02-01T08:57:21.307Z,120
2017-02-01T08:58:21.292Z,120
2017-02-01T08:59:20.923Z,110
2017-02-01T09:00:20.881Z,115
2017-02-01T09:01:21.259Z,115
2017-02-01T09:02:21.271Z,115
2017-02-01T09:03:21.227Z,120
2017-02-01T09:04:21.220Z,120
2017-02-01T09:05:21.202Z,120
2017-02-01T09:06:21.188Z,125
2017-02-01T09:07:21.178Z,130
2017-02-01T09:08:21.162Z,125
2017-02-01T09:09:21.160Z,120
2017-02-01T09:10:21.136Z,120
2017-02-01T09:11:21.131Z,130
2017-02-01T09:12:21.114Z,130
2017-02-01T09:13:21.100Z,130
2017-02-01T09:14:21.088Z,135
2017-02-01T09:15:21.079Z,140
2017-02-01T09:16:21.073Z,145
2017-02-01T09:17:21.117Z,140
2017-02-01T09:18:21.034Z,135
2017-02-01T09:19:21.026Z,140
2017-02-01T09:20:21.012Z,145
2017-02-01T09:21:21.023Z,150
2017-02-01T09:22:20.987Z,150
2017-02-01T09:23:20.972Z,145
2017-02-01T09:24:20.961Z,150
2017-02-01T09:25:20.955Z,155
2017-02-01T09:26:20.941Z,155
2017-02-01T09:27:20.538Z,155
2017-02-01T09:28:20.909Z,150
2017-02-01T09:29:20.900Z,150
2017-02-01T09:30:20.887Z,150
2017-02-01T09:31:20.101Z,150
2017-02-01T09:32:20.866Z,155
2017-02-01T09:33:20.878Z,160
2017-02-01T09:34:20.836Z,170
2017-02-01T09:35:20.834Z,170
2017-02-01T09:36:20.815Z,190
2017-02-01T09:37:20.436Z,190
2017-02-01T09:38:20.802Z,185
2017-02-01T09:39:20.790Z,175
2017-02-01T09:40:20.763Z,190
2017-02-01T09:41:20.752Z,200
2017-02-01T09:42:20.739Z,195
2017-02-01T09:43:20.733Z,195
2017-02-01T09:44:20.725Z,185
2017-02-01T09:45:20.705Z,185
2017-02-01T09:46:20.694Z,180
2017-02-01T09:47:20.676Z,175
2017-02-01T09:48:20.671Z,170
2017-02-01T09:49:20.664Z,160
2017-02-01T09:50:20.643Z,165
2017-02-01T09:51:20.253Z,165
2017-02-01T09:52:20.618Z,165
2017-02-01T09:53:20.636Z,165
2017-02-01T09:54:20.594Z,160
2017-02-01T09:55:20.596Z,155
2017-02-01T09:56:20.600Z,150
2017-02-01T09:57:20.560Z,150
2017-02-01T09:58:20.179Z,150
2017-02-01T09:59:20.534Z,150
2017-02-01T10:00:20.524Z,150
2017-02-01T10:01:20.132Z,145
2017-02-01T10:02:20.503Z,145
2017-02-01T10:03:20.485Z,140
2017-02-01T10:04:20.483Z,145
2017-02-01T10:05:20.461Z,145
2017-02-01T10:06:20.457Z,155
2017-02-01T10:07:20.441Z,160
2017-02-01T10:08:20.435Z,155
2017-02-01T10:09:20.416Z,150
2017-02-01T10:10:20.404Z,150
2017-02-01T10:11:20.016Z,150
2017-02-01T10:12:20.384Z,150
2017-02-01T10:13:19.984Z,150
2017-02-01T10:14:20.398Z,150
2017-02-01T10:15:20.347Z,150
2017-02-01T10:16:20.333Z,150
2017-02-01T10:17:20.321Z,150
2017-02-01T10:18:20.314Z,150
2017-02-01T10:19:20.304Z,150
2017-02-01T10:20:20.284Z,155
2017-02-01T10:21:20.289Z,165
2017-02-01T10:22:20.260Z,165
2017-02-01T10:23:20.250Z,160
2017-02-01T10:24:19.854Z,165
2017-02-01T10:25:20.228Z,165
2017-02-01T10:26:19.828Z,165
2017-02-01T10:27:20.233Z,160
2017-02-01T10:28:20.194Z,160
2017-02-01T10:29:20.177Z,160
2017-02-01T10:30:20.170Z,160
2017-02-01T10:31:20.157Z,160
2017-02-01T10:32:20.145Z,155
2017-02-01T10:33:20.131Z,155
2017-02-01T10:34:20.129Z,160
2017-02-01T10:35:20.109Z,155
2017-02-01T10:36:20.102Z,155
2017-02-01T10:37:20.085Z,155
2017-02-01T10:38:20.106Z,155
2017-02-01T10:39:20.064Z,155
2017-02-01T10:40:20.047Z,150
2017-02-01T10:41:20.038Z,150
2017-02-01T10:42:20.051Z,150
2017-02-01T10:43:20.014Z,150
2017-02-01T10:44:20.026Z,150
2017-02-01T10:45:19.992Z,145
2017-02-01T10:46:19.588Z,150
2017-02-01T10:47:19.961Z,150
2017-02-01T10:48:19.956Z,155
2017-02-01T10:49:19.943Z,160
2017-02-01T10:50:19.538Z,160
2017-02-01T10:51:19.538Z,160
2017-02-01T10:52:19.905Z,160
2017-02-01T10:53:19.894Z,160
2017-02-01T10:54:19.500Z,155
2017-02-01T10:55:19.869Z,155
2017-02-01T10:56:19.855Z,155
2017-02-01T10:57:19.845Z,160
2017-02-01T10:58:19.834Z,160
2017-02-01T10:59:19.822Z,165
2017-02-01T11:00:19.803Z,170
2017-02-01T11:01:19.796Z,170
2017-02-01T11:02:19.404Z,175
2017-02-01T11:03:19.770Z,190
2017-02-01T11:04:19.778Z,205
2017-02-01T11:05:19.750Z,215
2017-02-01T11:06:18.966Z,230
2017-02-01T11:07:19.728Z,220
2017-02-01T11:08:19.716Z,220
2017-02-01T11:09:19.702Z,225
2017-02-01T11:10:19.302Z,230
2017-02-01T11:11:19.677Z,230
2017-02-01T11:12:19.282Z,230
2017-02-01T11:13:19.653Z,235
2017-02-01T11:14:19.262Z,235
2017-02-01T11:15:19.247Z,230
2017-02-01T11:16:19.239Z,235
2017-02-01T11:17:19.644Z,235
2017-02-01T11:18:19.219Z,230
2017-02-01T11:19:19.585Z,230
2017-02-01T11:20:19.188Z,235
2017-02-01T11:21:19.575Z,240
2017-02-01T11:22:19.619Z,250
2017-02-01T11:23:19.152Z,255
2017-02-01T11:24:19.524Z,260
2017-02-01T11:25:19.520Z,240
2017-02-01T11:26:19.503Z,230
2017-02-01T11:27:19.108Z,230
2017-02-01T11:28:19.484Z,235
2017-02-01T11:29:19.092Z,245
2017-02-01T11:30:19.459Z,255
2017-02-01T11:31:19.058Z,260
2017-02-01T11:32:19.443Z,260
2017-02-01T11:33:19.455Z,265
2017-02-01T11:34:18.640Z,270
2017-02-01T11:35:19.022Z,260
2017-02-01T11:36:19.392Z,255
2017-02-01T11:37:19.377Z,255
2017-02-01T11:38:19.374Z,255
2017-02-01T11:39:19.361Z,250
2017-02-01T11:40:19.348Z,250
2017-02-01T11:41:19.337Z,250
2017-02-01T11:42:19.324Z,235
2017-02-01T11:43:19.311Z,225
2017-02-01T11:44:19.309Z,215
2017-02-01T11:45:18.902Z,225
2017-02-01T11:46:19.301Z,230
2017-02-01T11:47:19.268Z,225
2017-02-01T11:48:19.258Z,230
2017-02-01T11:49:19.243Z,225
2017-02-01T11:50:18.848Z,225
2017-02-01T11:51:19.227Z,235
2017-02-01T11:52:18.834Z,235
2017-02-01T11:53:19.202Z,225
2017-02-01T11:54:19.198Z,215
2017-02-01T11:55:19.188Z,215
2017-02-01T11:56:19.175Z,205
2017-02-01T11:57:18.771Z,205
2017-02-01T11:58:18.758Z,215
2017-02-01T11:59:19.141Z,220
2017-02-01T12:00:19.154Z,220
2017-02-01T12:01:19.123Z,225
2017-02-01T12:02:18.714Z,225
2017-02-01T12:03:19.090Z,220
2017-02-01T12:04:18.696Z,215
2017-02-01T12:05:18.689Z,215
2017-02-01T12:06:18.670Z,200
2017-02-01T12:07:19.048Z,200
2017-02-01T12:08:18.654Z,195
2017-02-01T12:09:19.038Z,195
2017-02-01T12:10:19.020Z,190
2017-02-01T12:11:18.618Z,200
2017-02-01T12:12:18.216Z,195
2017-02-01T12:13:18.984Z,190
2017-02-01T12:14:18.608Z,195
2017-02-01T12:15:18.571Z,195
2017-02-01T12:16:18.569Z,215
2017-02-01T12:17:18.934Z,220
2017-02-01T12:18:18.925Z,195
2017-02-01T12:19:18.916Z,195
2017-02-01T12:20:18.905Z,195
2017-02-01T12:21:18.895Z,190
2017-02-01T12:22:18.883Z,185
2017-02-01T12:23:18.888Z,200
2017-02-01T12:24:18.871Z,215
2017-02-01T12:25:18.851Z,210
2017-02-01T12:26:18.450Z,210
2017-02-01T12:27:18.827Z,210
2017-02-01T12:28:18.820Z,205
2017-02-01T12:29:18.420Z,195
2017-02-01T12:30:18.404Z,195
2017-02-01T12:31:18.424Z,190
2017-02-01T12:32:18.770Z,175
2017-02-01T12:33:18.787Z,170
2017-02-01T12:34:18.747Z,175
2017-02-01T12:35:18.734Z,180
2017-02-01T12:36:18.730Z,190
2017-02-01T12:37:18.718Z,200
2017-02-01T12:38:18.708Z,190
2017-02-01T12:39:18.725Z,180
2017-02-01T12:40:18.684Z,185
2017-02-01T12:41:18.282Z,195
2017-02-01T12:42:18.664Z,200
2017-02-01T12:43:18.259Z,200
2017-02-01T12:44:18.637Z,220
2017-02-01T12:45:18.629Z,260
2017-02-01T12:46:18.616Z,270
2017-02-01T12:47:18.221Z,275
2017-02-01T12:48:17.817Z,270
2017-02-01T12:49:18.583Z,255
2017-02-01T12:50:18.188Z,240
2017-02-01T12:51:18.558Z,235
2017-02-01T12:52:18.567Z,230
2017-02-01T12:53:18.533Z,230
2017-02-01T12:54:18.526Z,220
2017-02-01T12:55:17.747Z,215
2017-02-01T12:56:18.508Z,210
2017-02-01T12:57:18.490Z,215
2017-02-01T12:58:18.482Z,220
2017-02-01T12:59:18.475Z,220
2017-02-01T13:01:18.452Z,235
2017-02-01T13:02:18.431Z,225
2017-02-01T13:03:18.422Z,210
2017-02-01T13:04:18.027Z,205
2017-02-01T13:05:18.453Z,205
2017-02-01T13:06:18.390Z,205
2017-02-01T13:07:18.382Z,215
2017-02-01T13:08:18.372Z,220
2017-02-01T13:09:17.586Z,220
2017-02-01T13:10:17.967Z,215
2017-02-01T13:11:17.954Z,215
2017-02-01T13:12:18.337Z,220
2017-02-01T13:13:18.317Z,230
2017-02-01T13:14:18.312Z,240
2017-02-01T13:15:18.296Z,245
2017-02-01T13:16:17.903Z,240
2017-02-01T13:17:17.888Z,230
2017-02-01T13:18:18.274Z,230
2017-02-01T13:19:18.253Z,225
2017-02-01T13:20:17.482Z,230
2017-02-01T13:21:17.070Z,230
2017-02-01T13:22:18.219Z,230
2017-02-01T13:23:18.213Z,225
2017-02-01T13:24:17.810Z,215
2017-02-01T13:25:17.418Z,210
2017-02-01T13:26:17.796Z,210
2017-02-01T13:27:17.392Z,215
2017-02-01T13:28:18.151Z,220
2017-02-01T13:29:18.141Z,220
2017-02-01T13:30:17.740Z,220
2017-02-01T13:31:17.733Z,215
2017-02-01T13:32:17.731Z,220
2017-02-01T13:33:17.718Z,220
2017-02-01T13:34:17.701Z,215
2017-02-01T13:35:17.691Z,210
2017-02-01T13:36:17.685Z,210
2017-02-01T13:37:18.062Z,215
2017-02-01T13:38:17.660Z,215
2017-02-01T13:39:18.035Z,210
2017-02-01T13:40:18.027Z,215
2017-02-01T13:41:17.625Z,210
2017-02-01T13:42:18.003Z,210
2017-02-01T13:43:17.989Z,210
2017-02-01T13:44:17.979Z,210
2017-02-01T13:45:17.968Z,210
2017-02-01T13:46:17.582Z,205
2017-02-01T13:47:17.943Z,210
2017-02-01T13:48:17.167Z,200
2017-02-01T13:49:17.956Z,195
2017-02-01T13:50:17.780Z,195
2017-02-01T13:51:17.513Z,195
2017-02-01T13:52:17.887Z,190
2017-02-01T13:53:17.876Z,185
2017-02-01T13:54:17.877Z,180
2017-02-01T13:55:17.855Z,185
2017-02-01T13:56:17.073Z,190
2017-02-01T13:57:17.835Z,195
2017-02-01T13:58:17.437Z,190
2017-02-01T13:59:17.820Z,190
2017-02-01T14:00:17.801Z,190
2017-02-01T14:01:17.795Z,195
2017-02-01T14:02:17.394Z,195
2017-02-01T14:03:17.382Z,190
2017-02-01T14:04:17.373Z,190
2017-02-01T14:05:16.979Z,185
2017-02-01T14:06:16.965Z,185
2017-02-01T14:07:17.333Z,180
2017-02-01T14:08:17.340Z,175
2017-02-01T14:09:17.322Z,175
2017-02-01T14:10:17.301Z,170
2017-02-01T14:11:17.292Z,175
2017-02-01T14:12:17.292Z,160
2017-02-01T14:13:17.656Z,150
2017-02-01T14:14:17.643Z,145
2017-02-01T14:15:17.639Z,145
2017-02-01T14:16:16.461Z,140
2017-02-01T14:17:17.224Z,135
2017-02-01T14:18:17.603Z,135